sensor_id;sensor_type;location;lat;lon;timestamp;temperature;humidity
28608;DHT22;15802;45.654;13.804;2022-10-04T00:00:02;17.20;99.90
28608;DHT22;15802;45.654;13.804;2022-10-04T00:02:32;17.20;99.90
28608;DHT22;15802;45.654;13.804;2022-10-04T00:04:59;17.10;99.90
28608;DHT22;15802;45.654;13.804;2022-10-04T00:07:30;17.10;99.90
28608;DHT22;15802;45.654;13.804;2022-10-04T00:12:45;17.10;99.90
28608;DHT22;15802;45.654;13.804;2022-10-04T00:15:17;17.10;99.90
28608;DHT22;15802;45.654;13.804;2022-10-04T00:17:43;17.00;99.90
28608;DHT22;15802;45.654;13.804;2022-10-04T00:25:46;17.00;99.90
28608;DHT22;15802;45.654;13.804;2022-10-04T00:28:22;17.00;99.90
28608;DHT22;15802;45.654;13.804;2022-10-04T00:33:37;17.00;99.90
28608;DHT22;15802;45.654;13.804;2022-10-04T00:36:29;16.90;99.90
28608;DHT22;15802;45.654;13.804;2022-10-04T00:39:14;16.90;99.90
28608;DHT22;15802;45.654;13.804;2022-10-04T00:41:52;16.90;99.90
28608;DHT22;15802;45.654;13.804;2022-10-04T00:49:52;16.90;99.90
28608;DHT22;15802;45.654;13.804;2022-10-04T00:52:22;16.90;99.90
28608;DHT22;15802;45.654;13.804;2022-10-04T00:54:50;16.90;99.90
28608;DHT22;15802;45.654;13.804;2022-10-04T00:57:19;16.90;99.90
28608;DHT22;15802;45.654;13.804;2022-10-04T00:59:47;16.90;99.90
28608;DHT22;15802;45.654;13.804;2022-10-04T01:02:22;16.90;99.90
28608;DHT22;15802;45.654;13.804;2022-10-04T01:04:52;16.80;99.90
28608;DHT22;15802;45.654;13.804;2022-10-04T01:07:22;16.90;99.90
28608;DHT22;15802;45.654;13.804;2022-10-04T01:09:50;16.80;99.90
28608;DHT22;15802;45.654;13.804;2022-10-04T01:12:23;16.80;99.90
28608;DHT22;15802;45.654;13.804;2022-10-04T01:14:54;16.70;99.90
28608;DHT22;15802;45.654;13.804;2022-10-04T01:17:24;16.70;99.90
28608;DHT22;15802;45.654;13.804;2022-10-04T01:19:51;16.60;99.90
28608;DHT22;15802;45.654;13.804;2022-10-04T01:22:28;16.60;99.90
28608;DHT22;15802;45.654;13.804;2022-10-04T01:24:56;16.60;99.90
28608;DHT22;15802;45.654;13.804;2022-10-04T01:27:32;16.50;99.90
28608;DHT22;15802;45.654;13.804;2022-10-04T01:29:59;16.60;99.90
28608;DHT22;15802;45.654;13.804;2022-10-04T01:32:26;16.60;99.90
28608;DHT22;15802;45.654;13.804;2022-10-04T01:34:51;16.50;99.90
28608;DHT22;15802;45.654;13.804;2022-10-04T01:37:17;16.50;99.90
28608;DHT22;15802;45.654;13.804;2022-10-04T01:39:43;16.50;99.90
28608;DHT22;15802;45.654;13.804;2022-10-04T01:42:11;16.50;99.90
28608;DHT22;15802;45.654;13.804;2022-10-04T01:44:43;16.50;99.90
28608;DHT22;15802;45.654;13.804;2022-10-04T01:47:11;16.50;99.90
28608;DHT22;15802;45.654;13.804;2022-10-04T01:49:38;16.50;99.90
28608;DHT22;15802;45.654;13.804;2022-10-04T01:52:08;16.50;99.90
28608;DHT22;15802;45.654;13.804;2022-10-04T01:54:36;16.60;99.90
28608;DHT22;15802;45.654;13.804;2022-10-04T01:57:10;16.60;99.90
28608;DHT22;15802;45.654;13.804;2022-10-04T01:59:38;16.60;99.90
28608;DHT22;15802;45.654;13.804;2022-10-04T02:02:08;16.60;99.90
28608;DHT22;15802;45.654;13.804;2022-10-04T02:04:36;16.70;99.90
28608;DHT22;15802;45.654;13.804;2022-10-04T02:07:03;16.70;99.90
28608;DHT22;15802;45.654;13.804;2022-10-04T02:09:36;16.70;99.90
28608;DHT22;15802;45.654;13.804;2022-10-04T02:12:03;16.70;99.90
28608;DHT22;15802;45.654;13.804;2022-10-04T02:14:31;16.70;99.90
28608;DHT22;15802;45.654;13.804;2022-10-04T02:16:57;16.70;99.90
28608;DHT22;15802;45.654;13.804;2022-10-04T02:19:25;16.70;99.90
28608;DHT22;15802;45.654;13.804;2022-10-04T02:21:52;16.60;99.90
28608;DHT22;15802;45.654;13.804;2022-10-04T02:24:19;16.70;99.90
28608;DHT22;15802;45.654;13.804;2022-10-04T02:26:48;16.60;99.90
28608;DHT22;15802;45.654;13.804;2022-10-04T02:29:14;16.60;99.90
28608;DHT22;15802;45.654;13.804;2022-10-04T02:31:40;16.60;99.90
28608;DHT22;15802;45.654;13.804;2022-10-04T02:34:24;16.60;99.90
28608;DHT22;15802;45.654;13.804;2022-10-04T02:36:50;16.70;99.90
28608;DHT22;15802;45.654;13.804;2022-10-04T02:39:19;16.60;99.90
28608;DHT22;15802;45.654;13.804;2022-10-04T02:41:48;16.60;99.90
28608;DHT22;15802;45.654;13.804;2022-10-04T02:44:18;16.60;99.90
28608;DHT22;15802;45.654;13.804;2022-10-04T02:46:54;16.60;99.90
28608;DHT22;15802;45.654;13.804;2022-10-04T02:49:26;16.60;99.90
28608;DHT22;15802;45.654;13.804;2022-10-04T02:51:53;16.50;99.90
28608;DHT22;15802;45.654;13.804;2022-10-04T02:54:27;16.50;99.90
28608;DHT22;15802;45.654;13.804;2022-10-04T02:56:55;16.40;99.90
28608;DHT22;15802;45.654;13.804;2022-10-04T02:59:21;16.40;99.90
28608;DHT22;15802;45.654;13.804;2022-10-04T03:01:49;16.40;99.90
28608;DHT22;15802;45.654;13.804;2022-10-04T03:04:16;16.30;99.90
28608;DHT22;15802;45.654;13.804;2022-10-04T03:06:45;16.30;99.90
28608;DHT22;15802;45.654;13.804;2022-10-04T03:09:11;16.20;99.90
28608;DHT22;15802;45.654;13.804;2022-10-04T03:11:38;16.10;99.90
28608;DHT22;15802;45.654;13.804;2022-10-04T03:14:07;16.10;99.90
28608;DHT22;15802;45.654;13.804;2022-10-04T03:16:35;16.00;99.90
28608;DHT22;15802;45.654;13.804;2022-10-04T03:19:01;16.00;99.90
28608;DHT22;15802;45.654;13.804;2022-10-04T03:21:28;16.00;99.90
28608;DHT22;15802;45.654;13.804;2022-10-04T03:23:55;16.00;99.90
28608;DHT22;15802;45.654;13.804;2022-10-04T03:26:31;16.00;99.90
28608;DHT22;15802;45.654;13.804;2022-10-04T03:28:57;16.00;99.90
28608;DHT22;15802;45.654;13.804;2022-10-04T03:31:23;16.10;99.90
28608;DHT22;15802;45.654;13.804;2022-10-04T03:33:51;16.10;99.90
28608;DHT22;15802;45.654;13.804;2022-10-04T03:36:18;16.10;99.90
28608;DHT22;15802;45.654;13.804;2022-10-04T03:38:44;16.10;99.90
28608;DHT22;15802;45.654;13.804;2022-10-04T03:41:11;16.00;99.90
28608;DHT22;15802;45.654;13.804;2022-10-04T03:43:39;16.00;99.90
28608;DHT22;15802;45.654;13.804;2022-10-04T03:46:08;16.10;99.90
28608;DHT22;15802;45.654;13.804;2022-10-04T03:48:38;16.10;99.90
28608;DHT22;15802;45.654;13.804;2022-10-04T03:51:05;16.10;99.90
28608;DHT22;15802;45.654;13.804;2022-10-04T03:53:33;16.10;99.90
28608;DHT22;15802;45.654;13.804;2022-10-04T03:56:01;16.10;99.90
28608;DHT22;15802;45.654;13.804;2022-10-04T03:58:27;16.00;99.90
28608;DHT22;15802;45.654;13.804;2022-10-04T04:01:02;16.10;99.90
28608;DHT22;15802;45.654;13.804;2022-10-04T04:03:29;16.00;99.90
28608;DHT22;15802;45.654;13.804;2022-10-04T04:05:57;16.00;99.90
28608;DHT22;15802;45.654;13.804;2022-10-04T04:08:32;15.90;99.90
28608;DHT22;15802;45.654;13.804;2022-10-04T04:10:58;15.90;99.90
28608;DHT22;15802;45.654;13.804;2022-10-04T04:13:46;15.90;99.90
28608;DHT22;15802;45.654;13.804;2022-10-04T04:16:15;15.80;99.90
28608;DHT22;15802;45.654;13.804;2022-10-04T04:18:42;15.80;99.90
28608;DHT22;15802;45.654;13.804;2022-10-04T04:21:08;15.80;99.90
28608;DHT22;15802;45.654;13.804;2022-10-04T04:23:38;15.80;99.90
28608;DHT22;15802;45.654;13.804;2022-10-04T04:26:13;15.80;99.90
28608;DHT22;15802;45.654;13.804;2022-10-04T04:28:46;15.90;99.90
28608;DHT22;15802;45.654;13.804;2022-10-04T04:31:18;15.90;99.90
28608;DHT22;15802;45.654;13.804;2022-10-04T04:34:01;15.80;99.90
28608;DHT22;15802;45.654;13.804;2022-10-04T04:36:29;15.80;99.90
28608;DHT22;15802;45.654;13.804;2022-10-04T04:41:58;15.80;99.90
28608;DHT22;15802;45.654;13.804;2022-10-04T04:44:25;15.80;99.90
28608;DHT22;15802;45.654;13.804;2022-10-04T04:46:51;15.80;99.90
28608;DHT22;15802;45.654;13.804;2022-10-04T04:49:17;15.70;99.90
28608;DHT22;15802;45.654;13.804;2022-10-04T04:51:46;15.70;99.90
28608;DHT22;15802;45.654;13.804;2022-10-04T04:54:12;15.70;99.90
28608;DHT22;15802;45.654;13.804;2022-10-04T04:56:39;15.60;99.90
28608;DHT22;15802;45.654;13.804;2022-10-04T04:59:06;15.60;99.90
28608;DHT22;15802;45.654;13.804;2022-10-04T05:01:34;15.60;99.90
28608;DHT22;15802;45.654;13.804;2022-10-04T05:04:01;15.60;99.90
28608;DHT22;15802;45.654;13.804;2022-10-04T05:06:27;15.50;99.90
28608;DHT22;15802;45.654;13.804;2022-10-04T05:08:53;15.50;99.90
28608;DHT22;15802;45.654;13.804;2022-10-04T05:11:19;15.50;99.90
28608;DHT22;15802;45.654;13.804;2022-10-04T05:19:16;15.50;99.90
28608;DHT22;15802;45.654;13.804;2022-10-04T05:21:46;15.50;99.90
28608;DHT22;15802;45.654;13.804;2022-10-04T05:24:16;15.50;99.90
28608;DHT22;15802;45.654;13.804;2022-10-04T05:26:43;15.50;99.90
28608;DHT22;15802;45.654;13.804;2022-10-04T05:29:14;15.60;99.90
28608;DHT22;15802;45.654;13.804;2022-10-04T05:31:53;15.60;99.90
28608;DHT22;15802;45.654;13.804;2022-10-04T05:34:21;15.70;99.90
28608;DHT22;15802;45.654;13.804;2022-10-04T05:36:52;15.70;99.90
28608;DHT22;15802;45.654;13.804;2022-10-04T05:39:24;15.70;99.90
28608;DHT22;15802;45.654;13.804;2022-10-04T05:42:00;15.70;99.90
28608;DHT22;15802;45.654;13.804;2022-10-04T05:44:28;15.80;99.90
28608;DHT22;15802;45.654;13.804;2022-10-04T05:46:56;15.80;99.90
28608;DHT22;15802;45.654;13.804;2022-10-04T05:49:24;15.80;99.90
28608;DHT22;15802;45.654;13.804;2022-10-04T05:51:52;15.90;99.90
28608;DHT22;15802;45.654;13.804;2022-10-04T05:54:20;16.00;99.90
28608;DHT22;15802;45.654;13.804;2022-10-04T05:56:53;16.00;99.90
28608;DHT22;15802;45.654;13.804;2022-10-04T05:59:34;16.00;99.90
28608;DHT22;15802;45.654;13.804;2022-10-04T06:02:07;16.00;99.90
28608;DHT22;15802;45.654;13.804;2022-10-04T06:07:23;16.00;99.90
28608;DHT22;15802;45.654;13.804;2022-10-04T06:12:40;16.00;99.90
28608;DHT22;15802;45.654;13.804;2022-10-04T06:17:59;15.90;99.90
28608;DHT22;15802;45.654;13.804;2022-10-04T06:20:49;16.00;99.90
28608;DHT22;15802;45.654;13.804;2022-10-04T06:23:17;15.90;99.90
28608;DHT22;15802;45.654;13.804;2022-10-04T06:25:46;15.90;99.90
28608;DHT22;15802;45.654;13.804;2022-10-04T06:28:15;15.90;99.90
28608;DHT22;15802;45.654;13.804;2022-10-04T06:30:52;16.00;99.90
28608;DHT22;15802;45.654;13.804;2022-10-04T06:36:14;16.20;99.90
28608;DHT22;15802;45.654;13.804;2022-10-04T06:38:54;16.20;99.90
28608;DHT22;15802;45.654;13.804;2022-10-04T06:41:41;16.30;99.90
28608;DHT22;15802;45.654;13.804;2022-10-04T06:44:13;16.40;99.90
28608;DHT22;15802;45.654;13.804;2022-10-04T06:46:45;16.40;99.90
28608;DHT22;15802;45.654;13.804;2022-10-04T06:54:38;16.50;99.90
28608;DHT22;15802;45.654;13.804;2022-10-04T06:57:18;16.50;99.90
28608;DHT22;15802;45.654;13.804;2022-10-04T07:10:57;16.60;99.90
28608;DHT22;15802;45.654;13.804;2022-10-04T07:13:29;16.70;99.90
28608;DHT22;15802;45.654;13.804;2022-10-04T07:16:00;16.70;99.90
28608;DHT22;15802;45.654;13.804;2022-10-04T07:18:34;16.80;99.90
28608;DHT22;15802;45.654;13.804;2022-10-04T07:21:03;16.90;99.90
28608;DHT22;15802;45.654;13.804;2022-10-04T07:23:31;17.00;99.90
28608;DHT22;15802;45.654;13.804;2022-10-04T07:26:00;17.00;99.90
28608;DHT22;15802;45.654;13.804;2022-10-04T07:28:29;17.00;99.90
28608;DHT22;15802;45.654;13.804;2022-10-04T07:31:23;17.20;99.90
28608;DHT22;15802;45.654;13.804;2022-10-04T07:33:53;17.20;99.90
28608;DHT22;15802;45.654;13.804;2022-10-04T07:36:30;17.20;99.90
28608;DHT22;15802;45.654;13.804;2022-10-04T07:41:48;17.20;99.90
28608;DHT22;15802;45.654;13.804;2022-10-04T07:47:24;17.30;99.90
28608;DHT22;15802;45.654;13.804;2022-10-04T07:49:53;17.40;99.90
28608;DHT22;15802;45.654;13.804;2022-10-04T07:52:23;17.40;99.90
28608;DHT22;15802;45.654;13.804;2022-10-04T07:54:57;17.40;99.90
28608;DHT22;15802;45.654;13.804;2022-10-04T07:57:28;17.40;99.90
28608;DHT22;15802;45.654;13.804;2022-10-04T08:08:19;17.70;99.90
28608;DHT22;15802;45.654;13.804;2022-10-04T08:11:09;17.80;99.90
28608;DHT22;15802;45.654;13.804;2022-10-04T08:13:45;17.80;99.90
28608;DHT22;15802;45.654;13.804;2022-10-04T08:16:18;18.00;99.90
28608;DHT22;15802;45.654;13.804;2022-10-04T08:18:59;17.90;99.90
28608;DHT22;15802;45.654;13.804;2022-10-04T08:21:33;18.00;99.90
28608;DHT22;15802;45.654;13.804;2022-10-04T08:24:07;17.90;99.90
28608;DHT22;15802;45.654;13.804;2022-10-04T08:27:13;18.00;99.90
28608;DHT22;15802;45.654;13.804;2022-10-04T08:32:27;18.10;99.90
28608;DHT22;15802;45.654;13.804;2022-10-04T08:35:02;18.20;99.90
28608;DHT22;15802;45.654;13.804;2022-10-04T08:37:50;18.20;99.90
28608;DHT22;15802;45.654;13.804;2022-10-04T08:46:10;18.40;99.90
28608;DHT22;15802;45.654;13.804;2022-10-04T08:57:35;18.60;99.90
28608;DHT22;15802;45.654;13.804;2022-10-04T09:02:53;19.10;99.90
28608;DHT22;15802;45.654;13.804;2022-10-04T09:05:30;19.20;99.90
28608;DHT22;15802;45.654;13.804;2022-10-04T09:08:19;19.30;99.90
28608;DHT22;15802;45.654;13.804;2022-10-04T09:13:44;19.60;99.90
28608;DHT22;15802;45.654;13.804;2022-10-04T09:16:31;19.80;99.90
28608;DHT22;15802;45.654;13.804;2022-10-04T09:21:53;19.90;99.90
28608;DHT22;15802;45.654;13.804;2022-10-04T09:24:31;19.90;99.90
28608;DHT22;15802;45.654;13.804;2022-10-04T09:27:23;19.90;99.90
28608;DHT22;15802;45.654;13.804;2022-10-04T09:30:03;19.80;99.90
28608;DHT22;15802;45.654;13.804;2022-10-04T09:32:57;19.80;99.90
28608;DHT22;15802;45.654;13.804;2022-10-04T09:35:41;19.80;99.90
28608;DHT22;15802;45.654;13.804;2022-10-04T09:38:21;19.90;99.90
28608;DHT22;15802;45.654;13.804;2022-10-04T09:40:55;20.00;99.90
28608;DHT22;15802;45.654;13.804;2022-10-04T09:43:28;20.10;99.90
28608;DHT22;15802;45.654;13.804;2022-10-04T09:48:57;20.00;99.90
28608;DHT22;15802;45.654;13.804;2022-10-04T09:54:25;19.90;99.90
28608;DHT22;15802;45.654;13.804;2022-10-04T09:57:01;19.80;99.90
28608;DHT22;15802;45.654;13.804;2022-10-04T09:59:44;19.70;99.90
28608;DHT22;15802;45.654;13.804;2022-10-04T10:02:39;19.60;99.90
28608;DHT22;15802;45.654;13.804;2022-10-04T10:08:12;19.70;99.90
28608;DHT22;15802;45.654;13.804;2022-10-04T10:10:48;19.80;99.90
28608;DHT22;15802;45.654;13.804;2022-10-04T10:13:48;19.90;99.90
28608;DHT22;15802;45.654;13.804;2022-10-04T10:16:35;20.00;99.90
28608;DHT22;15802;45.654;13.804;2022-10-04T10:22:00;20.10;99.90
28608;DHT22;15802;45.654;13.804;2022-10-04T10:27:18;20.10;99.90
28608;DHT22;15802;45.654;13.804;2022-10-04T10:30:00;20.20;99.90
28608;DHT22;15802;45.654;13.804;2022-10-04T10:33:03;20.40;99.90
28608;DHT22;15802;45.654;13.804;2022-10-04T10:35:35;20.50;99.90
28608;DHT22;15802;45.654;13.804;2022-10-04T10:40:58;20.60;99.90
28608;DHT22;15802;45.654;13.804;2022-10-04T10:43:50;20.60;99.90
28608;DHT22;15802;45.654;13.804;2022-10-04T10:46:26;20.70;99.90
28608;DHT22;15802;45.654;13.804;2022-10-04T10:49:08;20.70;99.90
28608;DHT22;15802;45.654;13.804;2022-10-04T10:54:28;20.80;99.90
28608;DHT22;15802;45.654;13.804;2022-10-04T10:57:04;21.00;99.90
28608;DHT22;15802;45.654;13.804;2022-10-04T10:59:45;21.00;99.90
28608;DHT22;15802;45.654;13.804;2022-10-04T11:02:29;21.10;99.90
28608;DHT22;15802;45.654;13.804;2022-10-04T11:07:58;21.10;99.90
28608;DHT22;15802;45.654;13.804;2022-10-04T11:10:51;21.20;99.90
28608;DHT22;15802;45.654;13.804;2022-10-04T11:13:20;21.20;99.90
28608;DHT22;15802;45.654;13.804;2022-10-04T11:24:16;21.40;99.90
28608;DHT22;15802;45.654;13.804;2022-10-04T11:26:48;21.40;99.90
28608;DHT22;15802;45.654;13.804;2022-10-04T11:35:00;21.20;99.90
28608;DHT22;15802;45.654;13.804;2022-10-04T11:37:34;21.20;99.90
28608;DHT22;15802;45.654;13.804;2022-10-04T11:40:10;21.20;99.90
28608;DHT22;15802;45.654;13.804;2022-10-04T11:42:47;21.10;99.90
28608;DHT22;15802;45.654;13.804;2022-10-04T11:45:24;21.00;99.90
28608;DHT22;15802;45.654;13.804;2022-10-04T11:48:07;21.00;99.90
28608;DHT22;15802;45.654;13.804;2022-10-04T11:50:59;21.00;99.90
28608;DHT22;15802;45.654;13.804;2022-10-04T11:53:37;20.90;99.90
28608;DHT22;15802;45.654;13.804;2022-10-04T11:56:26;21.00;99.90
28608;DHT22;15802;45.654;13.804;2022-10-04T11:59:12;21.00;99.90
28608;DHT22;15802;45.654;13.804;2022-10-04T12:04:46;21.10;99.90
28608;DHT22;15802;45.654;13.804;2022-10-04T12:07:23;21.20;99.90
28608;DHT22;15802;45.654;13.804;2022-10-04T12:09:58;21.20;99.90
28608;DHT22;15802;45.654;13.804;2022-10-04T12:12:36;21.10;99.90
28608;DHT22;15802;45.654;13.804;2022-10-04T12:26:18;20.80;99.90
28608;DHT22;15802;45.654;13.804;2022-10-04T12:31:48;20.70;99.90
28608;DHT22;15802;45.654;13.804;2022-10-04T12:34:21;20.70;99.90
28608;DHT22;15802;45.654;13.804;2022-10-04T12:37:00;20.60;99.90
28608;DHT22;15802;45.654;13.804;2022-10-04T12:42:19;20.40;99.90
28608;DHT22;15802;45.654;13.804;2022-10-04T12:44:54;20.40;99.90
28608;DHT22;15802;45.654;13.804;2022-10-04T12:47:29;20.40;99.90
28608;DHT22;15802;45.654;13.804;2022-10-04T12:50:02;20.50;99.90
28608;DHT22;15802;45.654;13.804;2022-10-04T12:52:33;20.30;99.90
28608;DHT22;15802;45.654;13.804;2022-10-04T12:55:16;20.30;99.90
28608;DHT22;15802;45.654;13.804;2022-10-04T12:57:50;20.30;99.90
28608;DHT22;15802;45.654;13.804;2022-10-04T13:00:18;20.40;99.90
28608;DHT22;15802;45.654;13.804;2022-10-04T13:02:56;20.30;99.90
28608;DHT22;15802;45.654;13.804;2022-10-04T13:05:33;20.40;99.90
28608;DHT22;15802;45.654;13.804;2022-10-04T13:08:14;20.50;99.90
28608;DHT22;15802;45.654;13.804;2022-10-04T13:10:42;20.50;99.90
28608;DHT22;15802;45.654;13.804;2022-10-04T13:13:24;20.40;99.90
28608;DHT22;15802;45.654;13.804;2022-10-04T13:16:01;20.50;99.90
28608;DHT22;15802;45.654;13.804;2022-10-04T13:18:34;20.50;99.90
28608;DHT22;15802;45.654;13.804;2022-10-04T13:21:05;20.50;99.90
28608;DHT22;15802;45.654;13.804;2022-10-04T13:26:22;20.50;99.90
28608;DHT22;15802;45.654;13.804;2022-10-04T13:28:57;20.50;99.90
28608;DHT22;15802;45.654;13.804;2022-10-04T13:31:35;20.50;99.90
28608;DHT22;15802;45.654;13.804;2022-10-04T13:36:54;20.50;99.90
28608;DHT22;15802;45.654;13.804;2022-10-04T13:42:14;20.50;99.90
28608;DHT22;15802;45.654;13.804;2022-10-04T13:47:33;20.50;99.90
28608;DHT22;15802;45.654;13.804;2022-10-04T13:50:06;20.50;99.90
28608;DHT22;15802;45.654;13.804;2022-10-04T13:52:41;20.50;99.90
28608;DHT22;15802;45.654;13.804;2022-10-04T13:55:34;20.60;99.90
28608;DHT22;15802;45.654;13.804;2022-10-04T13:58:24;20.70;99.90
28608;DHT22;15802;45.654;13.804;2022-10-04T14:00:59;20.60;99.90
28608;DHT22;15802;45.654;13.804;2022-10-04T14:09:21;20.50;99.90
28608;DHT22;15802;45.654;13.804;2022-10-04T14:12:07;20.50;99.90
28608;DHT22;15802;45.654;13.804;2022-10-04T14:17:49;20.40;99.90
28608;DHT22;15802;45.654;13.804;2022-10-04T14:20:27;20.40;99.90
28608;DHT22;15802;45.654;13.804;2022-10-04T14:34:17;20.30;99.90
28608;DHT22;15802;45.654;13.804;2022-10-04T14:42:36;20.30;99.90
28608;DHT22;15802;45.654;13.804;2022-10-04T14:45:31;20.20;99.90
28608;DHT22;15802;45.654;13.804;2022-10-04T14:48:11;20.20;99.90
28608;DHT22;15802;45.654;13.804;2022-10-04T14:50:45;20.30;99.90
28608;DHT22;15802;45.654;13.804;2022-10-04T14:53:19;20.40;99.90
28608;DHT22;15802;45.654;13.804;2022-10-04T15:01:18;20.40;99.90
28608;DHT22;15802;45.654;13.804;2022-10-04T15:03:56;20.40;99.90
28608;DHT22;15802;45.654;13.804;2022-10-04T15:09:19;20.50;99.90
28608;DHT22;15802;45.654;13.804;2022-10-04T15:11:50;20.50;99.90
28608;DHT22;15802;45.654;13.804;2022-10-04T15:14:22;20.60;99.90
28608;DHT22;15802;45.654;13.804;2022-10-04T15:16:53;20.60;99.90
28608;DHT22;15802;45.654;13.804;2022-10-04T15:19:25;20.50;99.90
28608;DHT22;15802;45.654;13.804;2022-10-04T15:24:44;20.50;99.90
28608;DHT22;15802;45.654;13.804;2022-10-04T15:30:02;20.50;99.90
28608;DHT22;15802;45.654;13.804;2022-10-04T15:32:32;20.30;99.90
28608;DHT22;15802;45.654;13.804;2022-10-04T15:35:06;20.30;99.90
28608;DHT22;15802;45.654;13.804;2022-10-04T15:37:40;20.30;99.90
28608;DHT22;15802;45.654;13.804;2022-10-04T15:42:55;20.20;99.90
28608;DHT22;15802;45.654;13.804;2022-10-04T15:45:28;20.10;99.90
28608;DHT22;15802;45.654;13.804;2022-10-04T15:48:01;20.10;99.90
28608;DHT22;15802;45.654;13.804;2022-10-04T15:50:32;20.00;99.90
28608;DHT22;15802;45.654;13.804;2022-10-04T15:53:09;19.90;99.90
28608;DHT22;15802;45.654;13.804;2022-10-04T15:58:28;19.90;99.90
28608;DHT22;15802;45.654;13.804;2022-10-04T16:01:20;19.80;99.90
28608;DHT22;15802;45.654;13.804;2022-10-04T16:04:09;19.70;99.90
28608;DHT22;15802;45.654;13.804;2022-10-04T16:06:52;19.60;99.90
28608;DHT22;15802;45.654;13.804;2022-10-04T16:09:24;19.60;99.90
28608;DHT22;15802;45.654;13.804;2022-10-04T16:11:58;19.50;99.90
28608;DHT22;15802;45.654;13.804;2022-10-04T16:16:53;19.40;99.90
28608;DHT22;15802;45.654;13.804;2022-10-04T16:22:09;19.20;99.90
28608;DHT22;15802;45.654;13.804;2022-10-04T16:24:44;19.20;99.90
28608;DHT22;15802;45.654;13.804;2022-10-04T16:27:14;19.00;99.90
28608;DHT22;15802;45.654;13.804;2022-10-04T16:32:27;18.90;99.90
28608;DHT22;15802;45.654;13.804;2022-10-04T16:34:55;18.70;99.90
28608;DHT22;15802;45.654;13.804;2022-10-04T16:37:27;18.60;99.90
28608;DHT22;15802;45.654;13.804;2022-10-04T16:40:00;18.60;99.90
28608;DHT22;15802;45.654;13.804;2022-10-04T16:48:04;18.50;99.90
28608;DHT22;15802;45.654;13.804;2022-10-04T16:56:16;18.40;99.90
28608;DHT22;15802;45.654;13.804;2022-10-04T16:58:47;18.40;99.90
28608;DHT22;15802;45.654;13.804;2022-10-04T17:04:13;18.30;99.90
28608;DHT22;15802;45.654;13.804;2022-10-04T17:06:47;18.30;99.90
28608;DHT22;15802;45.654;13.804;2022-10-04T17:09:17;18.30;99.90
28608;DHT22;15802;45.654;13.804;2022-10-04T17:11:57;18.30;99.90
28608;DHT22;15802;45.654;13.804;2022-10-04T17:20:02;18.30;99.90
28608;DHT22;15802;45.654;13.804;2022-10-04T17:28:13;18.30;99.90
28608;DHT22;15802;45.654;13.804;2022-10-04T17:30:47;18.30;99.90
28608;DHT22;15802;45.654;13.804;2022-10-04T17:33:22;18.20;99.90
28608;DHT22;15802;45.654;13.804;2022-10-04T17:35:59;18.20;99.90
28608;DHT22;15802;45.654;13.804;2022-10-04T17:38:50;18.20;99.90
28608;DHT22;15802;45.654;13.804;2022-10-04T17:41:26;18.20;99.90
28608;DHT22;15802;45.654;13.804;2022-10-04T17:46:45;18.20;99.90
28608;DHT22;15802;45.654;13.804;2022-10-04T17:49:18;18.10;99.90
28608;DHT22;15802;45.654;13.804;2022-10-04T17:52:09;18.20;99.90
28608;DHT22;15802;45.654;13.804;2022-10-04T17:54:57;18.10;99.90
28608;DHT22;15802;45.654;13.804;2022-10-04T17:57:49;18.10;99.90
28608;DHT22;15802;45.654;13.804;2022-10-04T18:00:16;18.10;99.90
28608;DHT22;15802;45.654;13.804;2022-10-04T18:02:48;18.00;99.90
28608;DHT22;15802;45.654;13.804;2022-10-04T18:05:17;18.00;99.90
28608;DHT22;15802;45.654;13.804;2022-10-04T18:07:47;18.00;99.90
28608;DHT22;15802;45.654;13.804;2022-10-04T18:10:21;18.00;99.90
28608;DHT22;15802;45.654;13.804;2022-10-04T18:12:50;17.90;99.90
28608;DHT22;15802;45.654;13.804;2022-10-04T18:15:37;17.90;99.90
28608;DHT22;15802;45.654;13.804;2022-10-04T18:18:10;17.90;99.90
28608;DHT22;15802;45.654;13.804;2022-10-04T18:20:44;17.80;99.90
28608;DHT22;15802;45.654;13.804;2022-10-04T18:23:15;17.70;99.90
28608;DHT22;15802;45.654;13.804;2022-10-04T18:25:42;17.70;99.90
28608;DHT22;15802;45.654;13.804;2022-10-04T18:28:12;17.50;99.90
28608;DHT22;15802;45.654;13.804;2022-10-04T18:30:55;17.50;99.90
28608;DHT22;15802;45.654;13.804;2022-10-04T18:33:28;17.40;99.90
28608;DHT22;15802;45.654;13.804;2022-10-04T18:35:59;17.40;99.90
28608;DHT22;15802;45.654;13.804;2022-10-04T18:38:27;17.40;99.90
28608;DHT22;15802;45.654;13.804;2022-10-04T18:40:54;17.40;99.90
28608;DHT22;15802;45.654;13.804;2022-10-04T18:43:29;17.30;99.90
28608;DHT22;15802;45.654;13.804;2022-10-04T18:45:58;17.30;99.90
28608;DHT22;15802;45.654;13.804;2022-10-04T18:48:35;17.20;99.90
28608;DHT22;15802;45.654;13.804;2022-10-04T18:51:15;17.20;99.90
28608;DHT22;15802;45.654;13.804;2022-10-04T18:53:45;17.20;99.90
28608;DHT22;15802;45.654;13.804;2022-10-04T18:56:15;17.10;99.90
28608;DHT22;15802;45.654;13.804;2022-10-04T18:58:48;17.10;99.90
28608;DHT22;15802;45.654;13.804;2022-10-04T19:01:47;17.00;99.90
28608;DHT22;15802;45.654;13.804;2022-10-04T19:07:17;16.90;99.90
28608;DHT22;15802;45.654;13.804;2022-10-04T19:10:05;16.90;99.90
28608;DHT22;15802;45.654;13.804;2022-10-04T19:15:21;16.80;99.90
28608;DHT22;15802;45.654;13.804;2022-10-04T19:17:54;16.80;99.90
28608;DHT22;15802;45.654;13.804;2022-10-04T19:20:27;16.80;99.90
28608;DHT22;15802;45.654;13.804;2022-10-04T19:25:44;16.70;99.90
28608;DHT22;15802;45.654;13.804;2022-10-04T19:28:19;16.70;99.90
28608;DHT22;15802;45.654;13.804;2022-10-04T19:30:49;16.70;99.90
28608;DHT22;15802;45.654;13.804;2022-10-04T19:33:23;16.70;99.90
28608;DHT22;15802;45.654;13.804;2022-10-04T19:35:56;16.70;99.90
28608;DHT22;15802;45.654;13.804;2022-10-04T19:41:10;16.60;99.90
28608;DHT22;15802;45.654;13.804;2022-10-04T19:46:34;16.60;99.90
28608;DHT22;15802;45.654;13.804;2022-10-04T19:49:02;16.50;99.90
28608;DHT22;15802;45.654;13.804;2022-10-04T19:51:38;16.50;99.90
28608;DHT22;15802;45.654;13.804;2022-10-04T19:54:10;16.50;99.90
28608;DHT22;15802;45.654;13.804;2022-10-04T19:56:38;16.40;99.90
28608;DHT22;15802;45.654;13.804;2022-10-04T19:59:11;16.40;99.90
28608;DHT22;15802;45.654;13.804;2022-10-04T20:01:38;16.40;99.90
28608;DHT22;15802;45.654;13.804;2022-10-04T20:04:06;16.40;99.90
28608;DHT22;15802;45.654;13.804;2022-10-04T20:06:54;16.40;99.90
28608;DHT22;15802;45.654;13.804;2022-10-04T20:15:13;16.30;99.90